Wingate, TX (79566)

2:43 PM CST on January 30, 2015 (GMT -0600)
20 Mi. SW of Abilene | Change Station
CLOSE
Current Station
Personal Weather Station
Location: Elm Valley Community, TX
Elevation: 2181 ft
Nearby Weather Stations

Elev 2181 ft 32.26 °N, 100.02 °W | Updated 6 minutes ago

Overcast
Overcast
49.2 °F
Feels Like 49 °F
N
3.0
Wind Variable Wind from ENE
Gusts 4.0 mph

Today
High -- | Low -- °F
--% Chance of Precip.
Yesterday
High -- | Low -- °F
Precip. -- in
7:35 AM 6:12 PM
Waxing Gibbous, 85% visible
Pressure 30.33 in
Visibility 10.0 miles
Clouds Mostly Cloudy 10000 ft
Overcast 15000 ft
Windchill 49 °F
Dew Point 32 °F
Humidity 51%
Rainfall 0.00 in
Snow Depth Not available.
UV 1 out of 12
Pollen 6.20 out of 12
Air Quality Not available.
Flu Activity Not available.
METAR KDYS 301958Z AUTO 11006KT 10SM BKN100 OVC150 10/00 A3034 RMK AO2 SLP270 T00951003 $

More Conditions Fewer Conditions

Pressure 30.33 in
Visibility 10.0 miles
Clouds Mostly Cloudy 10000 ft
Overcast 15000 ft
Windchill 49 °F
Dew Point 32 °F
Humidity 51%
Rainfall 0.00 in
Snow Depth Not available.
UV 1 out of 12
Pollen 6.20 out of 12
Air Quality Not available.
Flu Activity Not available.
METAR KDYS 301958Z AUTO 11006KT 10SM BKN100 OVC150 10/00 A3034 RMK AO2 SLP270 T00951003 $

More Conditions Fewer Conditions

10-Day Weather Forecast

Almanac

Astronomy

Jan. 30, 2015 Rise Set
Actual Time
Civil Twilight
Nautical Twilight
Astronomical Twilight
Moon
Length of Visible Light
Length of Day
Tomorrow will be .
, % of the Moon is Illuminated

Today's Extremes

State Highs State Lows

Community

WunderPhotos

Upload Photos

1,791,891 photos uploaded!

WunderBlogs® & News

Nearby

Air Quality

  Air Quality AQ Index Pollutant
Not available.

Snow Depth

Station Depth Elevation

Earthquake Activity

City Distance Mag. Time & Date
Minimum magnitude displayed is 2.5.

Coastal Water Temperatures

Place Temperature

Nearby Weather Stations